createdAt,value
2018-11-01T00:00:00.063Z,1005.04
2018-11-01T00:01:00.041Z,1005.01
2018-11-01T00:02:00.034Z,1005.02
2018-11-01T00:03:00.028Z,1005.03
2018-11-01T00:04:00.022Z,1005.03
2018-11-01T00:05:00.016Z,1005.03
2018-11-01T00:06:00.010Z,1004.97
2018-11-01T00:07:00.006Z,1005.00
2018-11-01T00:07:59.998Z,1004.99
2018-11-01T00:08:59.990Z,1004.97
2018-11-01T00:09:59.984Z,1004.97
2018-11-01T00:10:59.978Z,1004.97
2018-11-01T00:11:59.973Z,1004.96
2018-11-01T00:12:59.965Z,1004.97
2018-11-01T00:13:59.960Z,1004.97
2018-11-01T00:14:59.952Z,1004.93
2018-11-01T00:15:59.947Z,1004.92
2018-11-01T00:16:59.941Z,1004.86
2018-11-01T00:17:59.946Z,1004.88
2018-11-01T00:18:59.928Z,1004.89
2018-11-01T00:19:59.921Z,1004.82
2018-11-01T00:20:59.914Z,1004.83
2018-11-01T00:21:59.908Z,1004.81
2018-11-01T00:22:59.902Z,1004.87
2018-11-01T00:23:59.895Z,1004.80
2018-11-01T00:24:59.891Z,1004.84
2018-11-01T00:25:59.881Z,1004.82
2018-11-01T00:26:59.878Z,1004.77
2018-11-01T00:27:59.871Z,1004.75
2018-11-01T00:28:59.866Z,1004.76
2018-11-01T00:29:59.856Z,1004.69
2018-11-01T00:30:59.849Z,1004.70
2018-11-01T00:31:59.846Z,1004.68
2018-11-01T00:32:59.838Z,1004.69
2018-11-01T00:33:59.831Z,1004.72
2018-11-01T00:34:59.825Z,1004.72
2018-11-01T00:35:59.817Z,1004.73
2018-11-01T00:36:59.810Z,1004.74
2018-11-01T00:37:59.803Z,1004.75
2018-11-01T00:38:59.797Z,1004.76
2018-11-01T00:39:59.791Z,1004.76
2018-11-01T00:40:59.784Z,1004.71
2018-11-01T00:41:59.778Z,1004.71
2018-11-01T00:42:59.771Z,1004.77
2018-11-01T00:43:59.764Z,1004.77
2018-11-01T00:44:59.759Z,1004.73
2018-11-01T00:45:59.751Z,1004.82
2018-11-01T00:46:59.744Z,1004.86
2018-11-01T00:47:59.738Z,1004.90
2018-11-01T00:48:59.731Z,1004.91
2018-11-01T00:49:59.730Z,1004.85
2018-11-01T00:50:59.718Z,1004.82
2018-11-01T00:51:59.711Z,1004.79
2018-11-01T00:52:59.705Z,1004.77
2018-11-01T00:53:59.699Z,1004.84
2018-11-01T00:54:59.694Z,1004.82
2018-11-01T00:55:59.686Z,1004.80
2018-11-01T00:56:59.682Z,1004.83
2018-11-01T00:57:59.674Z,1004.77
2018-11-01T00:58:59.666Z,1004.73
2018-11-01T00:59:59.658Z,1004.74
2018-11-01T01:00:59.655Z,1004.74
2018-11-01T01:01:59.645Z,1004.78
2018-11-01T01:02:59.642Z,1004.75
2018-11-01T01:03:59.632Z,1004.76
2018-11-01T01:04:59.629Z,1004.73
2018-11-01T01:05:59.618Z,1004.73
2018-11-01T01:06:59.612Z,1004.71
2018-11-01T01:07:59.606Z,1004.72
2018-11-01T01:08:59.600Z,1004.71
2018-11-01T01:09:59.593Z,1004.69
2018-11-01T01:10:59.586Z,1004.64
2018-11-01T01:11:59.580Z,1004.62
2018-11-01T01:12:59.574Z,1004.67
2018-11-01T01:13:59.567Z,1004.66
2018-11-01T01:14:59.560Z,1004.61
2018-11-01T01:15:59.554Z,1004.59
2018-11-01T01:16:59.549Z,1004.65
2018-11-01T01:17:59.541Z,1004.64
2018-11-01T01:18:59.786Z,1004.59
2018-11-01T01:19:59.528Z,1004.60
2018-11-01T01:20:59.523Z,1004.54
2018-11-01T01:21:59.516Z,1004.55
2018-11-01T01:22:59.510Z,1004.50
2018-11-01T01:23:59.502Z,1004.47
2018-11-01T01:24:59.495Z,1004.46
2018-11-01T01:25:59.489Z,1004.48
2018-11-01T01:26:59.515Z,1004.47
2018-11-01T01:27:59.476Z,1004.48
2018-11-01T01:28:59.469Z,1004.45
2018-11-01T01:29:59.462Z,1004.42
2018-11-01T01:30:59.457Z,1004.46
2018-11-01T01:31:59.451Z,1004.45
2018-11-01T01:32:59.443Z,1004.45
2018-11-01T01:33:59.445Z,1004.47
2018-11-01T01:34:59.430Z,1004.43
2018-11-01T01:35:59.424Z,1004.47
2018-11-01T01:36:59.421Z,1004.51
2018-11-01T01:37:59.410Z,1004.43
2018-11-01T01:38:59.403Z,1004.45
2018-11-01T01:39:59.399Z,1004.41
2018-11-01T01:40:59.393Z,1004.46
2018-11-01T01:41:59.384Z,1004.38
2018-11-01T01:42:59.377Z,1004.39
2018-11-01T01:43:59.370Z,1004.37
2018-11-01T01:44:59.364Z,1004.34
2018-11-01T01:45:59.357Z,1004.32
2018-11-01T01:46:59.352Z,1004.33
2018-11-01T01:47:59.346Z,1004.32
2018-11-01T01:48:59.338Z,1004.26
2018-11-01T01:49:59.332Z,1004.31
2018-11-01T01:50:59.326Z,1004.31
2018-11-01T01:51:59.318Z,1004.33
2018-11-01T01:52:59.316Z,1004.31
2018-11-01T01:53:59.305Z,1004.31
2018-11-01T01:54:59.298Z,1004.36
2018-11-01T01:55:59.292Z,1004.39
2018-11-01T01:56:59.286Z,1004.37
2018-11-01T01:57:59.278Z,1004.34
2018-11-01T01:58:59.272Z,1004.37
2018-11-01T01:59:59.267Z,1004.41
2018-11-01T02:00:59.261Z,1004.48
2018-11-01T02:01:59.258Z,1004.48
2018-11-01T02:02:59.248Z,1004.47
2018-11-01T02:03:59.241Z,1004.44
2018-11-01T02:04:59.235Z,1004.44
2018-11-01T02:05:59.227Z,1004.43
2018-11-01T02:06:59.221Z,1004.40
2018-11-01T02:07:59.217Z,1004.40
2018-11-01T02:08:59.209Z,1004.38
2018-11-01T02:09:59.202Z,1004.33
2018-11-01T02:10:59.200Z,1004.34
2018-11-01T02:11:59.190Z,1004.30
2018-11-01T02:12:59.184Z,1004.25
2018-11-01T02:13:59.176Z,1004.25
2018-11-01T02:14:59.171Z,1004.25
2018-11-01T02:15:59.165Z,1004.25
2018-11-01T02:16:59.159Z,1004.24
2018-11-01T02:17:59.152Z,1004.25
2018-11-01T02:18:59.146Z,1004.22
2018-11-01T02:19:59.140Z,1004.21
2018-11-01T02:20:59.135Z,1004.20
2018-11-01T02:21:59.127Z,1004.16
2018-11-01T02:22:59.121Z,1004.17
2018-11-01T02:23:59.116Z,1004.14
2018-11-01T02:24:59.110Z,1004.17
2018-11-01T02:25:59.103Z,1004.20
2018-11-01T02:26:59.096Z,1004.20
2018-11-01T02:27:59.090Z,1004.19
2018-11-01T02:28:59.084Z,1004.16
2018-11-01T02:29:59.077Z,1004.13
2018-11-01T02:30:59.080Z,1004.12
2018-11-01T02:31:59.065Z,1004.17
2018-11-01T02:32:59.060Z,1004.17
2018-11-01T02:33:59.053Z,1004.17
2018-11-01T02:34:59.047Z,1004.20
2018-11-01T02:35:59.040Z,1004.18
2018-11-01T02:36:59.033Z,1004.20
2018-11-01T02:37:59.038Z,1004.20
2018-11-01T02:38:59.022Z,1004.15
2018-11-01T02:39:59.017Z,1004.12
2018-11-01T02:40:59.009Z,1004.15
2018-11-01T02:41:59.003Z,1004.13
2018-11-01T02:42:58.997Z,1004.13
2018-11-01T02:43:58.991Z,1004.15
2018-11-01T02:44:58.985Z,1004.17
2018-11-01T02:45:58.979Z,1004.19
2018-11-01T02:46:58.972Z,1004.19
2018-11-01T02:47:58.971Z,1004.18
2018-11-01T02:48:58.959Z,1004.17
2018-11-01T02:49:58.953Z,1004.16
2018-11-01T02:50:58.948Z,1004.12
2018-11-01T02:51:58.942Z,1004.10
2018-11-01T02:52:58.936Z,1004.08
2018-11-01T02:53:58.928Z,1004.06
2018-11-01T02:54:58.925Z,1004.01
2018-11-01T02:55:58.917Z,1004.01
2018-11-01T02:56:58.912Z,1004.00
2018-11-01T02:57:58.903Z,1003.99
2018-11-01T02:58:58.899Z,1004.00
2018-11-01T02:59:58.894Z,1003.95
2018-11-01T03:00:58.890Z,1003.91
2018-11-01T03:01:58.880Z,1003.93
2018-11-01T03:02:58.874Z,1003.87
2018-11-01T03:03:58.868Z,1003.84
2018-11-01T03:04:58.862Z,1003.84
2018-11-01T03:05:58.855Z,1003.86
2018-11-01T03:06:58.853Z,1003.81
2018-11-01T03:07:58.867Z,1003.83
2018-11-01T03:08:58.842Z,1003.81
2018-11-01T03:09:58.831Z,1003.78
2018-11-01T03:10:58.824Z,1003.79
2018-11-01T03:11:58.819Z,1003.74
2018-11-01T03:12:58.813Z,1003.70
2018-11-01T03:13:58.808Z,1003.67
2018-11-01T03:14:58.799Z,1003.66
2018-11-01T03:15:58.798Z,1003.61
2018-11-01T03:16:58.790Z,1003.62
2018-11-01T03:17:58.780Z,1003.61
2018-11-01T03:18:58.774Z,1003.62
2018-11-01T03:19:58.768Z,1003.62
2018-11-01T03:20:58.762Z,1003.61
2018-11-01T03:21:58.754Z,1003.62
2018-11-01T03:22:58.747Z,1003.64
2018-11-01T03:23:58.742Z,1003.63
2018-11-01T03:24:58.735Z,1003.69
2018-11-01T03:25:58.729Z,1003.69
2018-11-01T03:26:58.723Z,1003.65
2018-11-01T03:27:58.715Z,1003.66
2018-11-01T03:28:58.710Z,1003.68
2018-11-01T03:29:58.702Z,1003.61
2018-11-01T03:30:58.702Z,1003.59
2018-11-01T03:31:58.691Z,1003.54
2018-11-01T03:32:58.684Z,1003.57
2018-11-01T03:33:58.676Z,1003.55
2018-11-01T03:34:58.670Z,1003.55
2018-11-01T03:35:58.662Z,1003.55
2018-11-01T03:36:58.657Z,1003.59
2018-11-01T03:37:58.687Z,1003.62
2018-11-01T03:38:58.736Z,1003.60
2018-11-01T03:39:58.637Z,1003.64
2018-11-01T03:40:58.630Z,1003.64
2018-11-01T03:41:58.622Z,1003.61
2018-11-01T03:42:58.618Z,1003.62
2018-11-01T03:43:58.609Z,1003.59
2018-11-01T03:44:58.605Z,1003.57
2018-11-01T03:45:58.597Z,1003.59
2018-11-01T03:46:58.589Z,1003.57
2018-11-01T03:47:58.583Z,1003.56
2018-11-01T03:48:58.577Z,1003.50
2018-11-01T03:49:58.571Z,1003.50
2018-11-01T03:50:58.562Z,1003.44
2018-11-01T03:51:58.628Z,1003.47
2018-11-01T03:52:58.550Z,1003.42
2018-11-01T03:53:58.616Z,1003.43
2018-11-01T03:54:58.536Z,1003.41
2018-11-01T03:55:58.530Z,1003.40
2018-11-01T03:56:58.523Z,1003.35
2018-11-01T03:57:58.516Z,1003.31
2018-11-01T03:58:58.509Z,1003.29
2018-11-01T03:59:58.502Z,1003.24
2018-11-01T04:00:58.537Z,1003.18
2018-11-01T04:01:58.489Z,1003.20
2018-11-01T04:02:58.481Z,1003.20
2018-11-01T04:03:58.613Z,1003.23
2018-11-01T04:04:58.469Z,1003.24
2018-11-01T04:05:58.461Z,1003.25
2018-11-01T04:06:58.455Z,1003.25
2018-11-01T04:07:58.450Z,1003.25
2018-11-01T04:08:58.443Z,1003.23
2018-11-01T04:09:58.435Z,1003.24
2018-11-01T04:10:58.427Z,1003.29
2018-11-01T04:11:58.424Z,1003.34
2018-11-01T04:12:58.414Z,1003.38
2018-11-01T04:13:58.409Z,1003.34
2018-11-01T04:14:58.418Z,1003.34
2018-11-01T04:15:58.393Z,1003.33
2018-11-01T04:16:58.456Z,1003.36
2018-11-01T04:17:58.380Z,1003.28
2018-11-01T04:18:58.374Z,1003.25
2018-11-01T04:19:58.368Z,1003.24
2018-11-01T04:20:58.361Z,1003.28
2018-11-01T04:21:58.352Z,1003.23
2018-11-01T04:22:58.345Z,1003.23
2018-11-01T04:23:58.340Z,1003.21
2018-11-01T04:24:58.332Z,1003.24
2018-11-01T04:25:58.327Z,1003.24
2018-11-01T04:26:58.318Z,1003.21
2018-11-01T04:27:58.318Z,1003.21
2018-11-01T04:28:58.317Z,1003.19
2018-11-01T04:29:58.298Z,1003.17
2018-11-01T04:30:58.291Z,1003.14
2018-11-01T04:31:58.288Z,1003.14
2018-11-01T04:32:58.324Z,1003.15
2018-11-01T04:33:58.272Z,1003.19
2018-11-01T04:34:58.265Z,1003.19
2018-11-01T04:35:58.259Z,1003.19
2018-11-01T04:36:58.249Z,1003.24
2018-11-01T04:37:58.241Z,1003.27
2018-11-01T04:38:58.235Z,1003.28
2018-11-01T04:39:58.230Z,1003.24
2018-11-01T04:40:58.223Z,1003.26
2018-11-01T04:41:58.215Z,1003.26
2018-11-01T04:42:58.217Z,1003.15
2018-11-01T04:43:58.206Z,1003.12
2018-11-01T04:44:58.218Z,1003.15
2018-11-01T04:45:58.186Z,1003.06
2018-11-01T04:46:58.189Z,1003.03
2018-11-01T04:47:58.268Z,1003.01
2018-11-01T04:48:58.168Z,1003.01
2018-11-01T04:49:58.160Z,1003.03
2018-11-01T04:50:58.154Z,1003.00
2018-11-01T04:51:58.151Z,1003.00
2018-11-01T04:52:58.140Z,1002.98
2018-11-01T04:53:58.133Z,1002.98
2018-11-01T04:54:58.126Z,1002.96
2018-11-01T04:55:58.119Z,1002.95
2018-11-01T04:56:58.112Z,1002.93
2018-11-01T04:57:58.105Z,1002.94
2018-11-01T04:58:58.098Z,1002.89
2018-11-01T04:59:58.096Z,1002.91
2018-11-01T05:00:58.086Z,1002.91
2018-11-01T05:01:58.077Z,1002.95
2018-11-01T05:02:58.071Z,1003.03
2018-11-01T05:03:58.063Z,1003.02
2018-11-01T05:04:58.177Z,1003.07
2018-11-01T05:05:58.069Z,1003.10
2018-11-01T05:06:58.102Z,1003.11
2018-11-01T05:07:58.037Z,1003.14
2018-11-01T05:08:58.030Z,1003.15
2018-11-01T05:09:58.021Z,1003.13
2018-11-01T05:10:58.014Z,1003.11
2018-11-01T05:11:58.007Z,1003.13
2018-11-01T05:12:58.093Z,1003.12
2018-11-01T05:13:57.997Z,1003.15
2018-11-01T05:14:57.985Z,1003.14
2018-11-01T05:15:57.978Z,1003.15
2018-11-01T05:16:57.971Z,1003.15
2018-11-01T05:17:57.964Z,1003.13
2018-11-01T05:18:57.957Z,1003.11
2018-11-01T05:19:57.967Z,1003.10
2018-11-01T05:20:57.943Z,1003.11
2018-11-01T05:21:57.935Z,1003.15
2018-11-01T05:22:57.927Z,1003.16
2018-11-01T05:23:57.925Z,1003.21
2018-11-01T05:24:57.915Z,1003.26
2018-11-01T05:25:57.977Z,1003.24
2018-11-01T05:26:57.901Z,1003.23
2018-11-01T05:27:57.893Z,1003.22
2018-11-01T05:28:57.886Z,1003.20
2018-11-01T05:29:57.878Z,1003.21
2018-11-01T05:30:57.871Z,1003.20
2018-11-01T05:31:57.865Z,1003.23
2018-11-01T05:32:57.858Z,1003.25
2018-11-01T05:33:57.862Z,1003.23
2018-11-01T05:34:57.843Z,1003.27
2018-11-01T05:35:57.838Z,1003.30
2018-11-01T05:36:57.830Z,1003.30
2018-11-01T05:37:57.840Z,1003.32
2018-11-01T05:38:57.817Z,1003.27
2018-11-01T05:39:57.813Z,1003.25
2018-11-01T05:40:57.803Z,1003.24
2018-11-01T05:41:57.795Z,1003.22
2018-11-01T05:42:57.785Z,1003.20
2018-11-01T05:43:57.779Z,1003.21
2018-11-01T05:44:57.772Z,1003.21
2018-11-01T05:45:57.765Z,1003.24
2018-11-01T05:46:57.757Z,1003.26
2018-11-01T05:47:57.751Z,1003.19
2018-11-01T05:48:57.743Z,1003.22
2018-11-01T05:49:57.736Z,1003.19
2018-11-01T05:50:57.728Z,1003.15
2018-11-01T05:51:57.722Z,1003.14
2018-11-01T05:52:57.715Z,1003.16
2018-11-01T05:53:57.706Z,1003.09
2018-11-01T05:54:57.700Z,1003.04
2018-11-01T05:55:57.695Z,1003.00
2018-11-01T05:56:57.686Z,1002.98
2018-11-01T05:57:57.678Z,1002.95
2018-11-01T05:58:57.672Z,1002.96
2018-11-01T05:59:57.734Z,1002.93
2018-11-01T06:00:57.657Z,1002.92
2018-11-01T06:01:57.648Z,1002.97
2018-11-01T06:02:57.642Z,1002.95
2018-11-01T06:03:57.634Z,1002.92
2018-11-01T06:04:57.628Z,1002.97
2018-11-01T06:05:57.619Z,1002.96
2018-11-01T06:06:57.610Z,1002.94
2018-11-01T06:07:57.604Z,1002.96
2018-11-01T06:08:57.598Z,1002.98
2018-11-01T06:09:57.589Z,1002.98
2018-11-01T06:10:57.581Z,1003.01
2018-11-01T06:11:57.575Z,1003.02
2018-11-01T06:12:57.568Z,1003.06
2018-11-01T06:13:57.559Z,1003.05
2018-11-01T06:14:57.558Z,1003.02
2018-11-01T06:15:57.545Z,1003.01
2018-11-01T06:16:57.538Z,1003.04
2018-11-01T06:17:57.531Z,1003.06
2018-11-01T06:18:57.524Z,1003.08
2018-11-01T06:19:57.515Z,1003.13
2018-11-01T06:20:57.508Z,1003.13
2018-11-01T06:21:57.501Z,1003.24
2018-11-01T06:22:57.494Z,1003.22
2018-11-01T06:23:57.487Z,1003.24
2018-11-01T06:24:57.480Z,1003.28
2018-11-01T06:25:57.477Z,1003.30
2018-11-01T06:26:57.466Z,1003.30
2018-11-01T06:27:57.458Z,1003.32
2018-11-01T06:28:57.451Z,1003.32
2018-11-01T06:29:57.442Z,1003.32
2018-11-01T06:30:57.436Z,1003.36
2018-11-01T06:31:57.432Z,1003.38
2018-11-01T06:32:57.422Z,1003.36
2018-11-01T06:33:57.414Z,1003.40
2018-11-01T06:34:57.407Z,1003.39
2018-11-01T06:35:57.400Z,1003.38
2018-11-01T06:36:57.392Z,1003.37
2018-11-01T06:37:57.383Z,1003.37
2018-11-01T06:38:57.377Z,1003.37
2018-11-01T06:39:57.370Z,1003.33
2018-11-01T06:40:57.362Z,1003.42
2018-11-01T06:41:57.356Z,1003.39
2018-11-01T06:42:57.347Z,1003.38
2018-11-01T06:43:57.342Z,1003.42
2018-11-01T06:44:57.376Z,1003.41
2018-11-01T06:45:57.324Z,1003.43
2018-11-01T06:46:57.319Z,1003.47
2018-11-01T06:47:57.310Z,1003.52
2018-11-01T06:48:57.304Z,1003.54
2018-11-01T06:49:57.294Z,1003.52
2018-11-01T06:50:57.287Z,1003.53
2018-11-01T06:51:57.286Z,1003.56
2018-11-01T06:52:57.273Z,1003.60
2018-11-01T06:53:57.264Z,1003.66
2018-11-01T06:54:57.257Z,1003.68
2018-11-01T06:55:57.248Z,1003.72
2018-11-01T06:56:57.242Z,1003.75
2018-11-01T06:57:57.234Z,1003.74
2018-11-01T06:58:57.295Z,1003.76
2018-11-01T06:59:57.220Z,1003.77
2018-11-01T07:00:57.213Z,1003.74
2018-11-01T07:01:57.205Z,1003.74
2018-11-01T07:02:57.198Z,1003.71
2018-11-01T07:03:57.190Z,1003.65
2018-11-01T07:04:57.184Z,1003.68
2018-11-01T07:05:57.175Z,1003.64
2018-11-01T07:06:57.168Z,1003.61
2018-11-01T07:07:57.167Z,1003.60
2018-11-01T07:08:57.153Z,1003.61
2018-11-01T07:09:57.145Z,1003.61
2018-11-01T07:10:57.138Z,1003.59
2018-11-01T07:11:57.130Z,1003.62
2018-11-01T07:12:57.124Z,1003.63
2018-11-01T07:13:57.116Z,1003.58
2018-11-01T07:14:57.109Z,1003.57
2018-11-01T07:15:57.101Z,1003.58
2018-11-01T07:16:57.185Z,1003.59
2018-11-01T07:17:57.087Z,1003.60
2018-11-01T07:18:57.079Z,1003.59
2018-11-01T07:19:57.072Z,1003.55
2018-11-01T07:20:57.064Z,1003.57
2018-11-01T07:21:57.057Z,1003.59
2018-11-01T07:22:57.049Z,1003.56
2018-11-01T07:23:57.043Z,1003.52
2018-11-01T07:24:57.034Z,1003.51
2018-11-01T07:25:57.084Z,1003.49
2018-11-01T07:26:57.021Z,1003.49
2018-11-01T07:27:57.013Z,1003.51
2018-11-01T07:28:57.007Z,1003.45
2018-11-01T07:29:57.001Z,1003.42
2018-11-01T07:30:56.992Z,1003.43
2018-11-01T07:31:56.988Z,1003.40
2018-11-01T07:32:57.049Z,1003.35
2018-11-01T07:33:56.969Z,1003.38
2018-11-01T07:34:56.963Z,1003.34
2018-11-01T07:35:56.957Z,1003.29
2018-11-01T07:36:56.948Z,1003.23
2018-11-01T07:37:56.941Z,1003.22
2018-11-01T07:38:56.935Z,1003.22
2018-11-01T07:39:57.008Z,1003.18
2018-11-01T07:40:56.920Z,1003.17
2018-11-01T07:41:56.919Z,1003.15
2018-11-01T07:42:56.908Z,1003.14
2018-11-01T07:43:56.906Z,1003.17
2018-11-01T07:44:56.893Z,1003.15
2018-11-01T07:45:56.883Z,1003.16
2018-11-01T07:46:56.877Z,1003.14
2018-11-01T07:47:56.875Z,1003.13
2018-11-01T07:48:56.865Z,1003.12
2018-11-01T07:49:56.858Z,1003.06
2018-11-01T07:50:56.850Z,1003.04
2018-11-01T07:51:56.844Z,1002.98
2018-11-01T07:52:56.869Z,1002.98
2018-11-01T07:53:56.829Z,1002.94
2018-11-01T07:54:56.822Z,1002.96
2018-11-01T07:55:56.817Z,1002.94
2018-11-01T07:56:56.811Z,1002.94
2018-11-01T07:57:56.803Z,1002.93
2018-11-01T07:58:56.796Z,1002.97
2018-11-01T07:59:56.790Z,1003.00
2018-11-01T08:00:56.785Z,1003.00
2018-11-01T08:01:56.777Z,1003.00
2018-11-01T08:02:56.772Z,1002.98
2018-11-01T08:03:56.767Z,1002.99
2018-11-01T08:04:56.758Z,1002.96
2018-11-01T08:05:56.893Z,1002.96
2018-11-01T08:06:56.745Z,1002.93
2018-11-01T08:07:56.738Z,1002.88
2018-11-01T08:08:56.734Z,1002.86
2018-11-01T08:09:56.727Z,1002.89
2018-11-01T08:10:56.719Z,1002.87
2018-11-01T08:11:56.714Z,1002.85
2018-11-01T08:12:56.708Z,1002.85
2018-11-01T08:13:56.703Z,1002.87
2018-11-01T08:14:56.696Z,1002.84
2018-11-01T08:15:56.690Z,1002.82
2018-11-01T08:16:56.687Z,1002.80
2018-11-01T08:17:56.677Z,1002.81
2018-11-01T08:18:56.671Z,1002.88
2018-11-01T08:19:56.801Z,1002.90
2018-11-01T08:20:56.856Z,1002.87
2018-11-01T08:21:56.656Z,1002.89
2018-11-01T08:22:56.646Z,1002.89
2018-11-01T08:23:56.643Z,1002.88
2018-11-01T08:24:56.638Z,1002.90
2018-11-01T08:25:56.627Z,1002.90
2018-11-01T08:26:56.621Z,1002.88
2018-11-01T08:27:56.702Z,1002.89
2018-11-01T08:28:56.610Z,1002.83
2018-11-01T08:29:56.603Z,1002.85
2018-11-01T08:30:56.598Z,1002.89
2018-11-01T08:31:56.592Z,1002.87
2018-11-01T08:32:56.589Z,1002.90
2018-11-01T08:33:56.580Z,1002.92
2018-11-01T08:34:56.574Z,1002.91
2018-11-01T08:35:56.570Z,1002.90
2018-11-01T08:36:56.564Z,1002.90
2018-11-01T08:37:56.557Z,1002.88
2018-11-01T08:38:56.552Z,1002.88
2018-11-01T08:39:56.547Z,1002.93
2018-11-01T08:40:56.556Z,1002.93
2018-11-01T08:41:56.535Z,1002.95
2018-11-01T08:42:56.564Z,1002.94
2018-11-01T08:43:56.524Z,1002.92
2018-11-01T08:44:56.519Z,1002.95
2018-11-01T08:45:56.512Z,1002.98
2018-11-01T08:46:56.507Z,1002.99
2018-11-01T08:47:56.502Z,1002.97
2018-11-01T08:48:56.499Z,1002.97
2018-11-01T08:49:56.527Z,1002.98
2018-11-01T08:50:56.486Z,1003.00
2018-11-01T08:51:56.481Z,1002.99
2018-11-01T08:52:56.475Z,1003.04
2018-11-01T08:53:56.469Z,1003.04
2018-11-01T08:54:56.464Z,1003.04
2018-11-01T08:55:56.469Z,1003.02
2018-11-01T08:56:56.454Z,1003.06
2018-11-01T08:57:56.451Z,1003.08
2018-11-01T08:58:56.443Z,1003.09
2018-11-01T08:59:56.439Z,1003.09
2018-11-01T09:00:56.433Z,1003.10
2018-11-01T09:01:56.429Z,1003.07
2018-11-01T09:02:56.422Z,1003.08
2018-11-01T09:03:56.437Z,1003.05
2018-11-01T09:04:56.413Z,1003.00
2018-11-01T09:05:56.408Z,1002.97
2018-11-01T09:06:56.405Z,1002.97
2018-11-01T09:07:56.417Z,1002.91
2018-11-01T09:08:56.395Z,1002.91
2018-11-01T09:09:56.389Z,1002.89
2018-11-01T09:10:56.386Z,1002.87
2018-11-01T09:11:56.382Z,1002.81
2018-11-01T09:12:56.510Z,1002.80
2018-11-01T09:13:56.373Z,1002.78
2018-11-01T09:14:56.366Z,1002.79
2018-11-01T09:15:56.362Z,1002.78
2018-11-01T09:16:56.359Z,1002.82
2018-11-01T09:17:56.352Z,1002.83
2018-11-01T09:18:56.349Z,1002.84
2018-11-01T09:19:56.346Z,1002.87
2018-11-01T09:20:56.340Z,1002.87
2018-11-01T09:21:56.335Z,1002.88
2018-11-01T09:22:56.330Z,1002.89
2018-11-01T09:23:56.326Z,1002.95
2018-11-01T09:24:56.322Z,1002.86
2018-11-01T09:25:56.318Z,1002.89
2018-11-01T09:26:56.452Z,1002.90
2018-11-01T09:27:56.309Z,1002.85
2018-11-01T09:28:56.306Z,1002.85
2018-11-01T09:29:56.300Z,1002.82
2018-11-01T09:30:56.298Z,1002.82
2018-11-01T09:31:56.292Z,1002.81
2018-11-01T09:32:56.316Z,1002.82
2018-11-01T09:33:56.285Z,1002.84
2018-11-01T09:34:56.279Z,1002.82
2018-11-01T09:35:56.277Z,1002.81
2018-11-01T09:36:56.275Z,1002.81
2018-11-01T09:37:56.269Z,1002.79
2018-11-01T09:38:56.265Z,1002.77
2018-11-01T09:39:56.260Z,1002.74
2018-11-01T09:40:56.257Z,1002.73
2018-11-01T09:41:56.250Z,1002.72
2018-11-01T09:42:56.246Z,1002.71
2018-11-01T09:43:56.243Z,1002.68
2018-11-01T09:44:56.238Z,1002.65
2018-11-01T09:45:56.310Z,1002.68
2018-11-01T09:46:56.555Z,1002.69
2018-11-01T09:47:56.234Z,1002.65
2018-11-01T09:48:56.223Z,1002.63
2018-11-01T09:49:56.219Z,1002.66
2018-11-01T09:50:56.216Z,1002.65
2018-11-01T09:51:56.211Z,1002.67
2018-11-01T09:52:56.208Z,1002.70
2018-11-01T09:53:56.207Z,1002.67
2018-11-01T09:54:56.199Z,1002.69
2018-11-01T09:55:56.371Z,1002.68
2018-11-01T09:56:56.193Z,1002.70
2018-11-01T09:57:56.192Z,1002.69
2018-11-01T09:58:56.184Z,1002.71
2018-11-01T09:59:56.181Z,1002.72
2018-11-01T10:00:56.219Z,1002.72
2018-11-01T10:01:56.176Z,1002.72
2018-11-01T10:02:56.169Z,1002.70
2018-11-01T10:03:56.166Z,1002.71
2018-11-01T10:04:56.162Z,1002.71
2018-11-01T10:05:56.188Z,1002.71
2018-11-01T10:06:56.225Z,1002.74
2018-11-01T10:07:56.151Z,1002.75
2018-11-01T10:08:56.147Z,1002.75
2018-11-01T10:09:56.143Z,1002.75
2018-11-01T10:10:56.140Z,1002.79
2018-11-01T10:11:56.136Z,1002.79
2018-11-01T10:12:56.132Z,1002.77
2018-11-01T10:13:56.128Z,1002.79
2018-11-01T10:14:56.170Z,1002.79
2018-11-01T10:15:56.347Z,1002.73
2018-11-01T10:16:56.550Z,1002.75
2018-11-01T10:17:56.503Z,1002.67
2018-11-01T10:18:56.109Z,1002.63
2018-11-01T10:19:56.107Z,1002.59
2018-11-01T10:20:56.103Z,1002.62
2018-11-01T10:21:56.168Z,1002.58
2018-11-01T10:22:56.119Z,1002.58
2018-11-01T10:23:56.090Z,1002.59
2018-11-01T10:24:56.087Z,1002.62
2018-11-01T10:25:56.084Z,1002.56
2018-11-01T10:26:56.080Z,1002.59
2018-11-01T10:27:56.075Z,1002.65
2018-11-01T10:28:56.073Z,1002.63
2018-11-01T10:29:56.068Z,1002.61
2018-11-01T10:30:56.064Z,1002.67
2018-11-01T10:31:56.062Z,1002.69
2018-11-01T10:32:56.061Z,1002.68
2018-11-01T10:33:56.082Z,1002.70
2018-11-01T10:34:56.049Z,1002.69
2018-11-01T10:35:56.047Z,1002.66
2018-11-01T10:36:56.043Z,1002.61
2018-11-01T10:37:56.039Z,1002.61
2018-11-01T10:38:56.036Z,1002.56
2018-11-01T10:39:56.032Z,1002.55
2018-11-01T10:40:56.046Z,1002.54
2018-11-01T10:41:56.024Z,1002.52
2018-11-01T10:42:56.022Z,1002.49
2018-11-01T10:43:56.019Z,1002.49
2018-11-01T10:44:56.014Z,1002.50
2018-11-01T10:45:56.010Z,1002.51
2018-11-01T10:46:56.007Z,1002.52
2018-11-01T10:47:56.004Z,1002.52
2018-11-01T10:48:56.004Z,1002.54
2018-11-01T10:49:55.997Z,1002.52
2018-11-01T10:50:55.996Z,1002.51
2018-11-01T10:51:55.990Z,1002.56
2018-11-01T10:52:55.989Z,1002.55
2018-11-01T10:53:56.086Z,1002.54
2018-11-01T10:54:55.979Z,1002.48
2018-11-01T10:55:55.975Z,1002.47
2018-11-01T10:56:55.972Z,1002.44
2018-11-01T10:57:55.968Z,1002.43
2018-11-01T10:58:55.965Z,1002.42
2018-11-01T10:59:55.983Z,1002.43
2018-11-01T11:00:56.153Z,1002.46
2018-11-01T11:01:55.954Z,1002.48
2018-11-01T11:02:55.951Z,1002.43
2018-11-01T11:03:55.948Z,1002.41
2018-11-01T11:04:55.947Z,1002.41
2018-11-01T11:05:55.941Z,1002.40
2018-11-01T11:06:55.938Z,1002.38
2018-11-01T11:07:55.934Z,1002.37
2018-11-01T11:08:55.930Z,1002.38
2018-11-01T11:09:55.927Z,1002.37
2018-11-01T11:10:55.923Z,1002.37
2018-11-01T11:11:55.920Z,1002.38
2018-11-01T11:12:55.916Z,1002.32
2018-11-01T11:13:55.912Z,1002.31
2018-11-01T11:14:55.910Z,1002.28
2018-11-01T11:15:55.906Z,1002.26
2018-11-01T11:16:55.902Z,1002.23
2018-11-01T11:17:55.902Z,1002.22
2018-11-01T11:18:55.923Z,1002.22
2018-11-01T11:19:55.987Z,1002.24
2018-11-01T11:20:56.230Z,1002.25
2018-11-01T11:21:55.886Z,1002.27
2018-11-01T11:22:55.883Z,1002.23
2018-11-01T11:23:55.881Z,1002.20
2018-11-01T11:24:55.876Z,1002.22
2018-11-01T11:25:55.877Z,1002.21
2018-11-01T11:26:55.869Z,1002.22
2018-11-01T11:27:55.868Z,1002.23
2018-11-01T11:28:55.863Z,1002.20
2018-11-01T11:29:55.903Z,1002.23
2018-11-01T11:30:55.857Z,1002.23
2018-11-01T11:31:55.852Z,1002.27
2018-11-01T11:32:55.850Z,1002.25
2018-11-01T11:33:55.846Z,1002.29
2018-11-01T11:34:55.846Z,1002.29
2018-11-01T11:35:55.917Z,1002.26
2018-11-01T11:36:55.839Z,1002.24
2018-11-01T11:37:55.833Z,1002.25
2018-11-01T11:38:55.865Z,1002.20
2018-11-01T11:39:55.831Z,1002.28
2018-11-01T11:40:55.822Z,1002.30
2018-11-01T11:41:55.817Z,1002.30
2018-11-01T11:42:55.821Z,1002.29
2018-11-01T11:43:55.814Z,1002.31
2018-11-01T11:44:55.807Z,1002.31
2018-11-01T11:45:55.807Z,1002.29
2018-11-01T11:46:55.802Z,1002.30
2018-11-01T11:47:55.801Z,1002.29
2018-11-01T11:48:55.793Z,1002.24
2018-11-01T11:49:55.789Z,1002.16
2018-11-01T11:50:55.786Z,1002.24
2018-11-01T11:51:55.782Z,1002.24
2018-11-01T11:52:55.779Z,1002.24
2018-11-01T11:53:55.774Z,1002.24
2018-11-01T11:54:55.772Z,1002.20
2018-11-01T11:55:55.768Z,1002.18
2018-11-01T11:56:55.799Z,1002.16
2018-11-01T11:57:55.759Z,1002.14
2018-11-01T11:58:55.755Z,1002.11
2018-11-01T11:59:55.752Z,1002.10
2018-11-01T12:00:55.750Z,1002.04
2018-11-01T12:01:55.744Z,1002.04
2018-11-01T12:02:55.741Z,1002.03
2018-11-01T12:03:55.740Z,1002.04
2018-11-01T12:04:55.734Z,1002.01